King City, California
Current Conditions -  °F | °C
As of 11:53 PM on Thursday 27 Nov 2014 (Local Time) from KSNS Reporting Station
Haze Haze  
Wind Chill: 48°   Ceiling: 200
Heat Index: 48°   Visibility: 0.25mi
Dew Point: 43°   Wind: 0mph
Humidity: 83%   Direction: NA
Pressure: 30.08"   Gusts: NA
Location:  36.21°N, 121.12°W
Report Text: KSNS 280753Z AUTO 00000KT 1/4SM HZ VV002 09/06 A3008 RMK AO2 SLP195 T00890061 402440083 TSNO RVRNO
Loading
Personal Weather Stations






























Interactive Weather Map New forecast layout! Learn more

10-Day Weather Forecast

Advertisements
Track Severe Weather on mobile